sensor_id;sensor_type;location;lat;lon;timestamp;pressure;altitude;pressure_sealevel;temperature;humidity
10668;BME280;5382;42.136;24.796;2023-05-07T00:02:24;100179.31;;;15.35;100.00
10668;BME280;5382;42.136;24.796;2023-05-07T00:04:51;100175.25;;;15.41;100.00
10668;BME280;5382;42.136;24.796;2023-05-07T00:07:19;100175.69;;;15.36;100.00
10668;BME280;5382;42.136;24.796;2023-05-07T00:09:45;100175.53;;;15.38;100.00
10668;BME280;5382;42.136;24.796;2023-05-07T00:12:12;100170.25;;;15.47;100.00
10668;BME280;5382;42.136;24.796;2023-05-07T00:14:39;100167.84;;;15.44;100.00
10668;BME280;5382;42.136;24.796;2023-05-07T00:17:06;100171.09;;;15.48;100.00
10668;BME280;5382;42.136;24.796;2023-05-07T00:19:32;100165.19;;;15.44;100.00
10668;BME280;5382;42.136;24.796;2023-05-07T00:21:59;100167.84;;;15.44;100.00
10668;BME280;5382;42.136;24.796;2023-05-07T00:24:27;100169.38;;;15.37;100.00
10668;BME280;5382;42.136;24.796;2023-05-07T00:26:54;100173.09;;;15.25;100.00
10668;BME280;5382;42.136;24.796;2023-05-07T00:29:23;100163.38;;;15.14;100.00
10668;BME280;5382;42.136;24.796;2023-05-07T00:31:50;100168.31;;;15.19;100.00
10668;BME280;5382;42.136;24.796;2023-05-07T00:34:19;100165.84;;;15.06;100.00
10668;BME280;5382;42.136;24.796;2023-05-07T00:36:46;100171.91;;;15.08;100.00
10668;BME280;5382;42.136;24.796;2023-05-07T00:39:12;100164.75;;;15.09;100.00
10668;BME280;5382;42.136;24.796;2023-05-07T00:41:40;100162.94;;;15.09;100.00
10668;BME280;5382;42.136;24.796;2023-05-07T00:44:07;100170.34;;;15.05;100.00
10668;BME280;5382;42.136;24.796;2023-05-07T00:46:34;100166.06;;;14.93;100.00
10668;BME280;5382;42.136;24.796;2023-05-07T00:49:01;100159.50;;;14.97;100.00
10668;BME280;5382;42.136;24.796;2023-05-07T00:51:29;100166.91;;;14.94;100.00
10668;BME280;5382;42.136;24.796;2023-05-07T00:53:56;100175.75;;;14.94;100.00
10668;BME280;5382;42.136;24.796;2023-05-07T00:56:23;100170.28;;;14.96;100.00
10668;BME280;5382;42.136;24.796;2023-05-07T00:58:51;100177.13;;;14.89;100.00
10668;BME280;5382;42.136;24.796;2023-05-07T01:01:18;100171.94;;;14.87;100.00
10668;BME280;5382;42.136;24.796;2023-05-07T01:03:45;100169.13;;;14.89;100.00
10668;BME280;5382;42.136;24.796;2023-05-07T01:06:12;100169.06;;;14.79;100.00
10668;BME280;5382;42.136;24.796;2023-05-07T01:08:42;100168.22;;;14.78;100.00
10668;BME280;5382;42.136;24.796;2023-05-07T01:11:10;100175.56;;;14.86;100.00
10668;BME280;5382;42.136;24.796;2023-05-07T01:13:37;100174.38;;;14.79;100.00
10668;BME280;5382;42.136;24.796;2023-05-07T01:16:06;100185.47;;;14.74;100.00
10668;BME280;5382;42.136;24.796;2023-05-07T01:18:37;100178.88;;;14.57;100.00
10668;BME280;5382;42.136;24.796;2023-05-07T01:21:04;100181.56;;;14.46;100.00
10668;BME280;5382;42.136;24.796;2023-05-07T01:23:33;100168.09;;;14.27;100.00
10668;BME280;5382;42.136;24.796;2023-05-07T01:26:00;100180.09;;;14.21;100.00
10668;BME280;5382;42.136;24.796;2023-05-07T01:28:28;100165.81;;;14.22;100.00
10668;BME280;5382;42.136;24.796;2023-05-07T01:31:03;100171.75;;;14.26;100.00
10668;BME280;5382;42.136;24.796;2023-05-07T01:33:33;100167.50;;;14.23;100.00
10668;BME280;5382;42.136;24.796;2023-05-07T01:36:01;100168.25;;;14.25;100.00
10668;BME280;5382;42.136;24.796;2023-05-07T01:38:33;100169.72;;;14.18;100.00
10668;BME280;5382;42.136;24.796;2023-05-07T01:41:00;100164.66;;;14.15;100.00
10668;BME280;5382;42.136;24.796;2023-05-07T01:43:28;100170.91;;;14.14;100.00
10668;BME280;5382;42.136;24.796;2023-05-07T01:45:55;100163.56;;;14.17;100.00
10668;BME280;5382;42.136;24.796;2023-05-07T01:48:22;100157.97;;;14.21;100.00
10668;BME280;5382;42.136;24.796;2023-05-07T01:50:50;100158.53;;;14.24;100.00
10668;BME280;5382;42.136;24.796;2023-05-07T01:53:17;100166.53;;;14.24;100.00
10668;BME280;5382;42.136;24.796;2023-05-07T01:55:46;100166.59;;;14.13;100.00
10668;BME280;5382;42.136;24.796;2023-05-07T01:58:12;100165.97;;;14.09;100.00
10668;BME280;5382;42.136;24.796;2023-05-07T02:00:39;100166.22;;;14.06;100.00
10668;BME280;5382;42.136;24.796;2023-05-07T02:03:07;100163.94;;;14.02;100.00
10668;BME280;5382;42.136;24.796;2023-05-07T02:05:33;100170.63;;;13.96;100.00
10668;BME280;5382;42.136;24.796;2023-05-07T02:08:00;100157.56;;;13.93;100.00
10668;BME280;5382;42.136;24.796;2023-05-07T02:10:27;100165.56;;;13.93;100.00
10668;BME280;5382;42.136;24.796;2023-05-07T02:12:55;100158.63;;;14.02;100.00
10668;BME280;5382;42.136;24.796;2023-05-07T02:15:22;100147.13;;;14.01;100.00
10668;BME280;5382;42.136;24.796;2023-05-07T02:17:59;100159.81;;;14.09;100.00
10668;BME280;5382;42.136;24.796;2023-05-07T02:20:26;100158.00;;;14.09;100.00
10668;BME280;5382;42.136;24.796;2023-05-07T02:22:53;100162.34;;;14.10;100.00
10668;BME280;5382;42.136;24.796;2023-05-07T02:25:19;100165.75;;;14.12;100.00
10668;BME280;5382;42.136;24.796;2023-05-07T02:27:46;100170.03;;;14.25;100.00
10668;BME280;5382;42.136;24.796;2023-05-07T02:30:15;100168.34;;;14.24;100.00
10668;BME280;5382;42.136;24.796;2023-05-07T02:32:42;100164.22;;;14.31;100.00
10668;BME280;5382;42.136;24.796;2023-05-07T02:35:08;100161.41;;;14.32;100.00
10668;BME280;5382;42.136;24.796;2023-05-07T02:37:35;100152.94;;;14.38;100.00
10668;BME280;5382;42.136;24.796;2023-05-07T02:40:03;100156.22;;;14.31;100.00
10668;BME280;5382;42.136;24.796;2023-05-07T02:42:30;100159.38;;;14.25;100.00
10668;BME280;5382;42.136;24.796;2023-05-07T02:44:57;100159.06;;;14.18;100.00
10668;BME280;5382;42.136;24.796;2023-05-07T02:47:25;100161.81;;;14.28;100.00
10668;BME280;5382;42.136;24.796;2023-05-07T02:49:53;100146.06;;;14.25;100.00
10668;BME280;5382;42.136;24.796;2023-05-07T02:52:20;100158.25;;;14.38;100.00
10668;BME280;5382;42.136;24.796;2023-05-07T02:54:47;100152.31;;;14.35;100.00
10668;BME280;5382;42.136;24.796;2023-05-07T02:57:14;100155.66;;;14.48;100.00
10668;BME280;5382;42.136;24.796;2023-05-07T02:59:41;100151.28;;;14.47;100.00
10668;BME280;5382;42.136;24.796;2023-05-07T03:02:08;100154.69;;;14.49;100.00
10668;BME280;5382;42.136;24.796;2023-05-07T03:04:36;100146.34;;;14.54;100.00
10668;BME280;5382;42.136;24.796;2023-05-07T03:07:03;100141.94;;;14.64;100.00
10668;BME280;5382;42.136;24.796;2023-05-07T03:09:30;100143.22;;;14.70;100.00
10668;BME280;5382;42.136;24.796;2023-05-07T03:11:57;100142.31;;;14.59;100.00
10668;BME280;5382;42.136;24.796;2023-05-07T03:14:24;100142.59;;;14.56;100.00
10668;BME280;5382;42.136;24.796;2023-05-07T03:16:50;100141.22;;;14.62;100.00
10668;BME280;5382;42.136;24.796;2023-05-07T03:19:17;100144.44;;;14.66;100.00
10668;BME280;5382;42.136;24.796;2023-05-07T03:21:45;100146.16;;;14.67;100.00
10668;BME280;5382;42.136;24.796;2023-05-07T03:24:12;100143.72;;;14.64;100.00
10668;BME280;5382;42.136;24.796;2023-05-07T03:26:39;100138.22;;;14.55;100.00
10668;BME280;5382;42.136;24.796;2023-05-07T03:29:06;100129.53;;;14.42;100.00
10668;BME280;5382;42.136;24.796;2023-05-07T03:31:32;100143.00;;;14.40;100.00
10668;BME280;5382;42.136;24.796;2023-05-07T03:33:59;100142.91;;;14.31;100.00
10668;BME280;5382;42.136;24.796;2023-05-07T03:36:26;100137.59;;;14.31;100.00
10668;BME280;5382;42.136;24.796;2023-05-07T03:38:54;100144.13;;;14.27;100.00
10668;BME280;5382;42.136;24.796;2023-05-07T03:41:21;100141.16;;;14.20;100.00
10668;BME280;5382;42.136;24.796;2023-05-07T03:43:48;100138.22;;;14.23;100.00
10668;BME280;5382;42.136;24.796;2023-05-07T03:46:14;100154.06;;;14.25;100.00
10668;BME280;5382;42.136;24.796;2023-05-07T03:48:41;100159.31;;;14.15;100.00
10668;BME280;5382;42.136;24.796;2023-05-07T03:51:08;100155.47;;;14.08;100.00
10668;BME280;5382;42.136;24.796;2023-05-07T03:53:35;100161.16;;;14.03;100.00
10668;BME280;5382;42.136;24.796;2023-05-07T03:56:03;100155.38;;;13.98;100.00
10668;BME280;5382;42.136;24.796;2023-05-07T03:58:30;100153.22;;;13.92;100.00
10668;BME280;5382;42.136;24.796;2023-05-07T04:00:57;100160.22;;;13.93;100.00
10668;BME280;5382;42.136;24.796;2023-05-07T04:03:24;100167.59;;;14.01;100.00
10668;BME280;5382;42.136;24.796;2023-05-07T04:05:50;100159.59;;;14.01;100.00
10668;BME280;5382;42.136;24.796;2023-05-07T04:08:17;100173.03;;;13.99;100.00
10668;BME280;5382;42.136;24.796;2023-05-07T04:10:44;100166.16;;;13.96;100.00
10668;BME280;5382;42.136;24.796;2023-05-07T04:13:12;100155.84;;;14.03;100.00
10668;BME280;5382;42.136;24.796;2023-05-07T04:15:39;100165.75;;;14.01;100.00
10668;BME280;5382;42.136;24.796;2023-05-07T04:18:06;100157.03;;;14.10;100.00
10668;BME280;5382;42.136;24.796;2023-05-07T04:20:34;100161.13;;;14.14;100.00
10668;BME280;5382;42.136;24.796;2023-05-07T04:23:01;100162.09;;;14.13;100.00
10668;BME280;5382;42.136;24.796;2023-05-07T04:25:28;100164.50;;;14.16;100.00
10668;BME280;5382;42.136;24.796;2023-05-07T04:27:55;100172.56;;;14.26;100.00
10668;BME280;5382;42.136;24.796;2023-05-07T04:30:23;100171.47;;;14.29;100.00
10668;BME280;5382;42.136;24.796;2023-05-07T04:32:50;100160.78;;;14.40;100.00
10668;BME280;5382;42.136;24.796;2023-05-07T04:35:17;100173.63;;;14.35;100.00
10668;BME280;5382;42.136;24.796;2023-05-07T04:37:44;100165.31;;;14.28;100.00
10668;BME280;5382;42.136;24.796;2023-05-07T04:40:10;100165.31;;;14.28;100.00
10668;BME280;5382;42.136;24.796;2023-05-07T04:42:37;100168.69;;;14.30;100.00
10668;BME280;5382;42.136;24.796;2023-05-07T04:45:05;100169.22;;;14.45;100.00
10668;BME280;5382;42.136;24.796;2023-05-07T04:47:33;100165.97;;;14.42;100.00
10668;BME280;5382;42.136;24.796;2023-05-07T04:50:00;100165.41;;;14.38;100.00
10668;BME280;5382;42.136;24.796;2023-05-07T04:52:27;100171.88;;;14.45;100.00
10668;BME280;5382;42.136;24.796;2023-05-07T04:54:53;100175.38;;;14.57;100.00
10668;BME280;5382;42.136;24.796;2023-05-07T04:57:21;100171.38;;;14.51;100.00
10668;BME280;5382;42.136;24.796;2023-05-07T04:59:47;100177.13;;;14.68;100.00
10668;BME280;5382;42.136;24.796;2023-05-07T05:02:14;100174.66;;;14.76;100.00
10668;BME280;5382;42.136;24.796;2023-05-07T05:04:42;100190.06;;;14.72;100.00
10668;BME280;5382;42.136;24.796;2023-05-07T05:07:09;100176.59;;;14.74;100.00
10668;BME280;5382;42.136;24.796;2023-05-07T05:09:36;100179.13;;;14.75;100.00
10668;BME280;5382;42.136;24.796;2023-05-07T05:12:03;100190.72;;;14.86;100.00
10668;BME280;5382;42.136;24.796;2023-05-07T05:14:32;100178.16;;;14.97;100.00
10668;BME280;5382;42.136;24.796;2023-05-07T05:16:59;100183.97;;;15.12;100.00
10668;BME280;5382;42.136;24.796;2023-05-07T05:19:26;100171.94;;;15.18;100.00
10668;BME280;5382;42.136;24.796;2023-05-07T05:21:54;100184.88;;;15.22;100.00
10668;BME280;5382;42.136;24.796;2023-05-07T05:24:21;100180.56;;;15.31;100.00
10668;BME280;5382;42.136;24.796;2023-05-07T05:26:48;100182.31;;;15.42;100.00
10668;BME280;5382;42.136;24.796;2023-05-07T05:29:14;100188.06;;;15.47;100.00
10668;BME280;5382;42.136;24.796;2023-05-07T05:31:41;100198.34;;;15.52;100.00
10668;BME280;5382;42.136;24.796;2023-05-07T05:34:08;100199.75;;;15.56;100.00
10668;BME280;5382;42.136;24.796;2023-05-07T05:36:34;100201.56;;;15.55;100.00
10668;BME280;5382;42.136;24.796;2023-05-07T05:39:03;100201.13;;;15.50;100.00
10668;BME280;5382;42.136;24.796;2023-05-07T05:41:30;100200.28;;;15.49;100.00
10668;BME280;5382;42.136;24.796;2023-05-07T05:43:57;100196.38;;;15.54;100.00
10668;BME280;5382;42.136;24.796;2023-05-07T05:46:23;100211.28;;;15.66;100.00
10668;BME280;5382;42.136;24.796;2023-05-07T05:48:50;100213.00;;;15.67;100.00
10668;BME280;5382;42.136;24.796;2023-05-07T05:51:17;100213.59;;;15.70;100.00
10668;BME280;5382;42.136;24.796;2023-05-07T05:53:44;100218.25;;;15.78;100.00
10668;BME280;5382;42.136;24.796;2023-05-07T05:56:12;100211.41;;;15.85;100.00
10668;BME280;5382;42.136;24.796;2023-05-07T05:58:39;100224.47;;;15.88;100.00
10668;BME280;5382;42.136;24.796;2023-05-07T06:01:06;100216.03;;;16.03;100.00
10668;BME280;5382;42.136;24.796;2023-05-07T06:03:33;100209.75;;;16.04;100.00
10668;BME280;5382;42.136;24.796;2023-05-07T06:06:02;100216.78;;;16.14;100.00
10668;BME280;5382;42.136;24.796;2023-05-07T06:08:29;100205.69;;;16.09;100.00
10668;BME280;5382;42.136;24.796;2023-05-07T06:10:56;100215.69;;;16.27;100.00
10668;BME280;5382;42.136;24.796;2023-05-07T06:13:25;100221.44;;;16.32;100.00
10668;BME280;5382;42.136;24.796;2023-05-07T06:15:51;100216.78;;;16.34;100.00
10668;BME280;5382;42.136;24.796;2023-05-07T06:18:18;100215.53;;;16.28;100.00
10668;BME280;5382;42.136;24.796;2023-05-07T06:20:45;100224.97;;;16.32;100.00
10668;BME280;5382;42.136;24.796;2023-05-07T06:23:12;100224.69;;;16.35;100.00
10668;BME280;5382;42.136;24.796;2023-05-07T06:25:38;100219.19;;;16.37;100.00
10668;BME280;5382;42.136;24.796;2023-05-07T06:28:06;100221.72;;;16.39;100.00
10668;BME280;5382;42.136;24.796;2023-05-07T06:30:35;100221.84;;;16.47;100.00
10668;BME280;5382;42.136;24.796;2023-05-07T06:33:02;100222.72;;;16.47;100.00
10668;BME280;5382;42.136;24.796;2023-05-07T06:35:28;100217.66;;;16.54;100.00
10668;BME280;5382;42.136;24.796;2023-05-07T06:37:55;100208.66;;;16.55;100.00
10668;BME280;5382;42.136;24.796;2023-05-07T06:40:22;100213.72;;;16.68;100.00
10668;BME280;5382;42.136;24.796;2023-05-07T06:42:49;100204.84;;;16.67;100.00
10668;BME280;5382;42.136;24.796;2023-05-07T06:45:16;100208.38;;;16.77;100.00
10668;BME280;5382;42.136;24.796;2023-05-07T06:47:44;100214.13;;;16.83;100.00
10668;BME280;5382;42.136;24.796;2023-05-07T06:50:11;100212.00;;;16.76;100.00
10668;BME280;5382;42.136;24.796;2023-05-07T06:52:38;100208.38;;;16.87;100.00
10668;BME280;5382;42.136;24.796;2023-05-07T06:55:06;100218.50;;;16.84;100.00
10668;BME280;5382;42.136;24.796;2023-05-07T06:57:33;100212.16;;;16.94;100.00
10668;BME280;5382;42.136;24.796;2023-05-07T07:00:00;100223.50;;;17.06;100.00
10668;BME280;5382;42.136;24.796;2023-05-07T07:02:26;100213.53;;;17.08;100.00
10668;BME280;5382;42.136;24.796;2023-05-07T07:04:54;100215.06;;;17.11;100.00
10668;BME280;5382;42.136;24.796;2023-05-07T07:07:21;100217.84;;;17.19;100.00
10668;BME280;5382;42.136;24.796;2023-05-07T07:09:49;100223.38;;;17.17;100.00
10668;BME280;5382;42.136;24.796;2023-05-07T07:12:16;100218.97;;;17.26;100.00
10668;BME280;5382;42.136;24.796;2023-05-07T07:14:43;100216.56;;;17.33;100.00
10668;BME280;5382;42.136;24.796;2023-05-07T07:17:10;100221.50;;;17.28;100.00
10668;BME280;5382;42.136;24.796;2023-05-07T07:19:37;100216.28;;;17.36;100.00
10668;BME280;5382;42.136;24.796;2023-05-07T07:22:06;100218.50;;;17.40;100.00
10668;BME280;5382;42.136;24.796;2023-05-07T07:24:32;100223.97;;;17.49;100.00
10668;BME280;5382;42.136;24.796;2023-05-07T07:26:59;100225.59;;;17.59;100.00
10668;BME280;5382;42.136;24.796;2023-05-07T07:29:26;100218.84;;;17.55;100.00
10668;BME280;5382;42.136;24.796;2023-05-07T07:31:53;100210.06;;;17.45;100.00
10668;BME280;5382;42.136;24.796;2023-05-07T07:34:19;100221.09;;;17.60;100.00
10668;BME280;5382;42.136;24.796;2023-05-07T07:36:46;100218.78;;;17.75;100.00
10668;BME280;5382;42.136;24.796;2023-05-07T07:39:14;100219.59;;;17.85;100.00
10668;BME280;5382;42.136;24.796;2023-05-07T07:41:41;100221.78;;;17.99;100.00
10668;BME280;5382;42.136;24.796;2023-05-07T07:44:08;100224.28;;;18.01;100.00
10668;BME280;5382;42.136;24.796;2023-05-07T07:46:38;100229.59;;;18.11;100.00
10668;BME280;5382;42.136;24.796;2023-05-07T07:49:05;100227.63;;;18.13;100.00
10668;BME280;5382;42.136;24.796;2023-05-07T07:51:31;100231.75;;;18.25;100.00
10668;BME280;5382;42.136;24.796;2023-05-07T07:53:58;100222.72;;;18.26;100.00
10668;BME280;5382;42.136;24.796;2023-05-07T07:56:27;100239.94;;;18.23;100.00
10668;BME280;5382;42.136;24.796;2023-05-07T07:58:54;100238.50;;;18.29;100.00
10668;BME280;5382;42.136;24.796;2023-05-07T08:01:21;100234.16;;;18.46;100.00
10668;BME280;5382;42.136;24.796;2023-05-07T08:03:47;100229.25;;;18.59;100.00
10668;BME280;5382;42.136;24.796;2023-05-07T08:06:14;100232.91;;;18.76;100.00
10668;BME280;5382;42.136;24.796;2023-05-07T08:08:41;100226.69;;;18.93;100.00
10668;BME280;5382;42.136;24.796;2023-05-07T08:11:08;100229.50;;;18.92;100.00
10668;BME280;5382;42.136;24.796;2023-05-07T08:13:36;100230.59;;;18.99;100.00
10668;BME280;5382;42.136;24.796;2023-05-07T08:16:04;100227.66;;;19.10;100.00
10668;BME280;5382;42.136;24.796;2023-05-07T08:18:31;100231.59;;;19.24;100.00
10668;BME280;5382;42.136;24.796;2023-05-07T08:20:58;100229.97;;;19.31;100.00
10668;BME280;5382;42.136;24.796;2023-05-07T08:23:25;100227.00;;;19.43;100.00
10668;BME280;5382;42.136;24.796;2023-05-07T08:25:51;100220.31;;;19.47;100.00
10668;BME280;5382;42.136;24.796;2023-05-07T08:28:18;100224.38;;;19.59;100.00
10668;BME280;5382;42.136;24.796;2023-05-07T08:30:48;100215.78;;;19.73;100.00
10668;BME280;5382;42.136;24.796;2023-05-07T08:33:14;100211.09;;;19.75;100.00
10668;BME280;5382;42.136;24.796;2023-05-07T08:35:41;100203.75;;;19.94;100.00
10668;BME280;5382;42.136;24.796;2023-05-07T08:38:08;100210.00;;;20.11;100.00
10668;BME280;5382;42.136;24.796;2023-05-07T08:40:37;100211.91;;;20.26;100.00
10668;BME280;5382;42.136;24.796;2023-05-07T08:43:05;100209.69;;;20.14;100.00
10668;BME280;5382;42.136;24.796;2023-05-07T08:45:33;100205.66;;;20.10;100.00
10668;BME280;5382;42.136;24.796;2023-05-07T08:48:05;100210.50;;;20.06;100.00
10668;BME280;5382;42.136;24.796;2023-05-07T08:50:35;100216.75;;;20.15;100.00
10668;BME280;5382;42.136;24.796;2023-05-07T08:53:03;100208.69;;;20.23;100.00
10668;BME280;5382;42.136;24.796;2023-05-07T08:55:30;100209.38;;;20.41;100.00
10668;BME280;5382;42.136;24.796;2023-05-07T08:57:57;100205.19;;;20.47;100.00
10668;BME280;5382;42.136;24.796;2023-05-07T09:00:23;100195.81;;;20.59;100.00
10668;BME280;5382;42.136;24.796;2023-05-07T09:02:51;100196.13;;;20.97;100.00
10668;BME280;5382;42.136;24.796;2023-05-07T09:05:20;100190.53;;;21.23;100.00
10668;BME280;5382;42.136;24.796;2023-05-07T09:07:46;100171.50;;;21.33;100.00
10668;BME280;5382;42.136;24.796;2023-05-07T09:10:14;100170.63;;;21.49;100.00
10668;BME280;5382;42.136;24.796;2023-05-07T09:12:41;100177.06;;;21.71;100.00
10668;BME280;5382;42.136;24.796;2023-05-07T09:15:09;100176.19;;;21.78;100.00
10668;BME280;5382;42.136;24.796;2023-05-07T09:17:35;100163.13;;;21.98;100.00
10668;BME280;5382;42.136;24.796;2023-05-07T09:20:03;100143.91;;;22.02;100.00
10668;BME280;5382;42.136;24.796;2023-05-07T09:22:32;100163.00;;;22.15;100.00
10668;BME280;5382;42.136;24.796;2023-05-07T09:24:59;100161.75;;;22.03;100.00
10668;BME280;5382;42.136;24.796;2023-05-07T09:27:26;100146.91;;;22.07;100.00
10668;BME280;5382;42.136;24.796;2023-05-07T09:29:53;100164.03;;;22.14;100.00
10668;BME280;5382;42.136;24.796;2023-05-07T09:32:20;100153.09;;;22.15;100.00
10668;BME280;5382;42.136;24.796;2023-05-07T09:34:46;100148.84;;;22.44;100.00
10668;BME280;5382;42.136;24.796;2023-05-07T09:37:13;100146.13;;;22.67;100.00
10668;BME280;5382;42.136;24.796;2023-05-07T09:39:42;100147.31;;;22.64;100.00
10668;BME280;5382;42.136;24.796;2023-05-07T09:42:09;100147.78;;;22.68;100.00
10668;BME280;5382;42.136;24.796;2023-05-07T09:44:37;100142.31;;;22.76;100.00
10668;BME280;5382;42.136;24.796;2023-05-07T09:47:05;100145.78;;;22.85;100.00
10668;BME280;5382;42.136;24.796;2023-05-07T09:49:34;100136.38;;;22.81;100.00
10668;BME280;5382;42.136;24.796;2023-05-07T09:52:03;100139.22;;;22.79;100.00
10668;BME280;5382;42.136;24.796;2023-05-07T09:54:32;100141.59;;;22.82;100.00
10668;BME280;5382;42.136;24.796;2023-05-07T09:57:02;100129.50;;;22.93;100.00
10668;BME280;5382;42.136;24.796;2023-05-07T09:59:29;100127.31;;;23.12;100.00
10668;BME280;5382;42.136;24.796;2023-05-07T10:01:58;100122.47;;;23.07;100.00
10668;BME280;5382;42.136;24.796;2023-05-07T10:04:26;100117.88;;;23.07;100.00
10668;BME280;5382;42.136;24.796;2023-05-07T10:06:53;100125.34;;;23.20;100.00
10668;BME280;5382;42.136;24.796;2023-05-07T10:09:21;100119.59;;;23.23;100.00
10668;BME280;5382;42.136;24.796;2023-05-07T10:11:49;100106.97;;;23.30;100.00
10668;BME280;5382;42.136;24.796;2023-05-07T10:14:17;100104.03;;;23.11;100.00
10668;BME280;5382;42.136;24.796;2023-05-07T10:16:47;100112.81;;;23.49;99.31
10668;BME280;5382;42.136;24.796;2023-05-07T10:19:14;100108.34;;;23.56;97.58
10668;BME280;5382;42.136;24.796;2023-05-07T10:21:47;100108.16;;;23.72;99.75
10668;BME280;5382;42.136;24.796;2023-05-07T10:24:20;100098.31;;;23.86;97.82
10668;BME280;5382;42.136;24.796;2023-05-07T10:26:50;100081.75;;;23.75;86.14
10668;BME280;5382;42.136;24.796;2023-05-07T10:29:28;100094.00;;;23.92;87.90
10668;BME280;5382;42.136;24.796;2023-05-07T10:31:59;100085.63;;;24.08;91.13
10668;BME280;5382;42.136;24.796;2023-05-07T10:34:37;100056.88;;;24.22;88.31
10668;BME280;5382;42.136;24.796;2023-05-07T10:37:06;100081.81;;;24.74;81.62
10668;BME280;5382;42.136;24.796;2023-05-07T10:39:34;100084.69;;;24.66;79.06
10668;BME280;5382;42.136;24.796;2023-05-07T10:42:08;100072.25;;;25.13;76.65
10668;BME280;5382;42.136;24.796;2023-05-07T10:44:36;100071.16;;;25.35;73.07
10668;BME280;5382;42.136;24.796;2023-05-07T10:47:06;100070.78;;;25.52;76.34
10668;BME280;5382;42.136;24.796;2023-05-07T10:49:35;100058.56;;;25.82;77.79
10668;BME280;5382;42.136;24.796;2023-05-07T10:52:11;100054.84;;;26.03;77.69
10668;BME280;5382;42.136;24.796;2023-05-07T10:54:39;100055.06;;;26.08;76.67
10668;BME280;5382;42.136;24.796;2023-05-07T10:57:35;100064.66;;;26.64;72.82
10668;BME280;5382;42.136;24.796;2023-05-07T11:03:11;100055.47;;;26.72;68.16
10668;BME280;5382;42.136;24.796;2023-05-07T11:05:40;100047.88;;;27.01;66.58
10668;BME280;5382;42.136;24.796;2023-05-07T11:08:07;100039.66;;;27.21;62.10
10668;BME280;5382;42.136;24.796;2023-05-07T11:10:48;100035.91;;;27.60;61.80
10668;BME280;5382;42.136;24.796;2023-05-07T11:13:15;100033.25;;;27.85;63.98
10668;BME280;5382;42.136;24.796;2023-05-07T11:15:43;100039.16;;;27.75;61.13
10668;BME280;5382;42.136;24.796;2023-05-07T11:18:13;100036.97;;;28.41;61.71
10668;BME280;5382;42.136;24.796;2023-05-07T11:20:54;100027.50;;;29.24;56.84
10668;BME280;5382;42.136;24.796;2023-05-07T11:23:55;100026.38;;;28.76;56.90
10668;BME280;5382;42.136;24.796;2023-05-07T11:26:26;100026.50;;;28.63;55.89
10668;BME280;5382;42.136;24.796;2023-05-07T11:28:54;100030.16;;;28.93;56.79
10668;BME280;5382;42.136;24.796;2023-05-07T11:31:23;100029.69;;;29.33;53.13
10668;BME280;5382;42.136;24.796;2023-05-07T11:33:52;100030.91;;;29.01;51.53
10668;BME280;5382;42.136;24.796;2023-05-07T11:36:18;100019.41;;;28.62;52.41
10668;BME280;5382;42.136;24.796;2023-05-07T11:38:46;100023.66;;;29.13;54.80
10668;BME280;5382;42.136;24.796;2023-05-07T11:41:13;100028.25;;;28.76;53.00
10668;BME280;5382;42.136;24.796;2023-05-07T11:43:57;100024.91;;;28.55;52.98
10668;BME280;5382;42.136;24.796;2023-05-07T11:46:24;100023.94;;;28.49;53.48
10668;BME280;5382;42.136;24.796;2023-05-07T11:48:52;100019.25;;;28.32;53.22
10668;BME280;5382;42.136;24.796;2023-05-07T11:51:20;100013.81;;;28.75;50.62
10668;BME280;5382;42.136;24.796;2023-05-07T11:53:47;100016.94;;;28.97;50.73
10668;BME280;5382;42.136;24.796;2023-05-07T11:56:16;100014.50;;;28.89;54.30
10668;BME280;5382;42.136;24.796;2023-05-07T11:58:46;100011.84;;;29.01;52.71
10668;BME280;5382;42.136;24.796;2023-05-07T12:01:13;100009.19;;;28.76;54.08
10668;BME280;5382;42.136;24.796;2023-05-07T12:03:42;100007.59;;;29.23;51.90
10668;BME280;5382;42.136;24.796;2023-05-07T12:06:13;100007.00;;;29.51;54.05
10668;BME280;5382;42.136;24.796;2023-05-07T12:08:41;100006.53;;;29.85;51.65
10668;BME280;5382;42.136;24.796;2023-05-07T12:11:09;100004.84;;;29.72;51.69
10668;BME280;5382;42.136;24.796;2023-05-07T12:13:37;100002.50;;;29.57;50.62
10668;BME280;5382;42.136;24.796;2023-05-07T12:16:06;100004.50;;;29.50;52.67
10668;BME280;5382;42.136;24.796;2023-05-07T12:18:34;99995.72;;;29.78;53.12
10668;BME280;5382;42.136;24.796;2023-05-07T12:21:01;99989.91;;;29.74;48.16
10668;BME280;5382;42.136;24.796;2023-05-07T12:23:30;100001.00;;;30.50;47.19
10668;BME280;5382;42.136;24.796;2023-05-07T12:25:59;99978.47;;;30.95;46.13
10668;BME280;5382;42.136;24.796;2023-05-07T12:28:25;99984.63;;;30.27;47.54
10668;BME280;5382;42.136;24.796;2023-05-07T12:30:52;99985.66;;;29.48;48.13
10668;BME280;5382;42.136;24.796;2023-05-07T12:33:24;99990.72;;;28.96;51.40
10668;BME280;5382;42.136;24.796;2023-05-07T12:35:52;99990.28;;;28.62;51.86
10668;BME280;5382;42.136;24.796;2023-05-07T12:38:19;99976.81;;;28.24;54.46
10668;BME280;5382;42.136;24.796;2023-05-07T12:40:49;99964.66;;;28.70;54.56
10668;BME280;5382;42.136;24.796;2023-05-07T12:43:17;99962.88;;;29.43;50.58
10668;BME280;5382;42.136;24.796;2023-05-07T12:45:45;99962.31;;;29.52;48.29
10668;BME280;5382;42.136;24.796;2023-05-07T12:48:12;99973.56;;;29.98;49.51
10668;BME280;5382;42.136;24.796;2023-05-07T12:50:39;99969.75;;;29.99;47.21